createdAt,value
2017-06-16T00:02:12.558Z,2.30
2017-06-16T00:04:40.063Z,2.73
2017-06-16T00:07:07.563Z,2.47
2017-06-16T00:09:35.092Z,2.43
2017-06-16T00:12:02.596Z,2.60
2017-06-16T00:14:30.863Z,2.27
2017-06-16T00:16:58.407Z,2.20
2017-06-16T00:19:25.911Z,2.17
2017-06-16T00:21:53.416Z,2.47
2017-06-16T00:24:20.934Z,2.13
2017-06-16T00:26:48.435Z,2.03
2017-06-16T00:29:15.935Z,2.30
2017-06-16T00:31:43.467Z,2.00
2017-06-16T00:34:10.967Z,1.60
2017-06-16T00:36:38.471Z,2.43
2017-06-16T00:39:05.995Z,2.10
2017-06-16T00:41:33.499Z,2.23
2017-06-16T00:44:01.004Z,2.10
2017-06-16T00:46:28.542Z,1.80
2017-06-16T00:48:56.807Z,1.90
2017-06-16T00:51:25.075Z,2.07
2017-06-16T00:53:52.600Z,1.90
2017-06-16T00:56:20.106Z,2.10
2017-06-16T00:58:47.607Z,1.90
2017-06-16T01:01:15.132Z,1.80
2017-06-16T01:03:42.635Z,1.83
2017-06-16T01:06:10.135Z,1.47
2017-06-16T01:08:37.659Z,2.00
2017-06-16T01:11:05.159Z,2.20
2017-06-16T01:13:33.427Z,2.20
2017-06-16T01:16:00.947Z,2.00
2017-06-16T01:18:28.451Z,2.10
2017-06-16T01:20:56.715Z,2.40
2017-06-16T01:23:24.235Z,1.90
2017-06-16T01:25:51.791Z,2.27
2017-06-16T01:28:19.299Z,2.40
2017-06-16T01:30:46.819Z,2.80
2017-06-16T01:33:14.324Z,2.40
2017-06-16T01:35:41.828Z,2.60
2017-06-16T01:38:09.401Z,2.43
2017-06-16T01:40:36.900Z,2.50
2017-06-16T01:43:04.400Z,2.70
2017-06-16T01:45:31.919Z,3.10
2017-06-16T01:47:59.423Z,2.77
2017-06-16T01:50:26.919Z,2.80
2017-06-16T01:52:54.446Z,3.20
2017-06-16T01:55:21.946Z,3.90
2017-06-16T01:57:49.446Z,3.30
2017-06-16T02:00:16.981Z,3.30
2017-06-16T02:02:44.484Z,3.80
2017-06-16T02:05:11.983Z,3.63
2017-06-16T02:07:39.503Z,3.53
2017-06-16T02:10:07.006Z,3.90
2017-06-16T02:12:34.506Z,3.73
2017-06-16T02:15:02.037Z,3.70
2017-06-16T02:17:29.535Z,4.23
2017-06-16T02:19:57.038Z,4.40
2017-06-16T02:22:24.559Z,5.30
2017-06-16T02:24:52.059Z,4.50
2017-06-16T02:27:19.563Z,4.90
2017-06-16T02:29:47.087Z,5.43
2017-06-16T02:32:14.592Z,4.87
2017-06-16T02:34:42.091Z,5.00
2017-06-16T02:37:09.611Z,5.60
2017-06-16T02:39:37.115Z,5.03
2017-06-16T02:42:04.615Z,6.07
2017-06-16T02:44:32.144Z,5.03
2017-06-16T02:46:59.645Z,5.80
2017-06-16T02:49:27.910Z,6.00
2017-06-16T02:51:55.431Z,5.80
2017-06-16T02:54:22.931Z,5.90
2017-06-16T02:56:50.432Z,5.50
2017-06-16T02:59:17.955Z,6.23
2017-06-16T03:01:45.459Z,5.63
2017-06-16T03:04:12.958Z,5.87
2017-06-16T03:09:11.923Z,6.97
2017-06-16T03:11:39.426Z,7.00
2017-06-16T03:14:06.926Z,6.03
2017-06-16T03:16:34.463Z,5.83
2017-06-16T03:19:01.963Z,5.90
2017-06-16T03:21:35.155Z,6.67
2017-06-16T03:24:02.656Z,6.77
2017-06-16T03:26:30.155Z,6.00
2017-06-16T03:28:57.684Z,6.10
2017-06-16T03:31:25.186Z,5.90
2017-06-16T03:33:52.691Z,6.80
2017-06-16T03:36:20.980Z,6.30
2017-06-16T03:38:48.651Z,6.80
2017-06-16T03:41:16.175Z,7.17
2017-06-16T03:43:43.703Z,7.27
2017-06-16T03:46:11.207Z,6.53
2017-06-16T03:48:38.715Z,6.73
2017-06-16T03:51:06.237Z,7.90
2017-06-16T03:53:34.498Z,6.73
2017-06-16T03:56:02.007Z,7.50
2017-06-16T03:58:29.534Z,7.23
2017-06-16T04:00:57.040Z,7.40
2017-06-16T04:03:24.552Z,7.20
2017-06-16T04:05:52.077Z,7.17
2017-06-16T04:08:19.579Z,6.93
2017-06-16T04:10:47.083Z,7.90
2017-06-16T04:13:14.604Z,6.43
2017-06-16T04:15:42.103Z,7.57
2017-06-16T04:18:09.607Z,7.67
2017-06-16T04:20:37.131Z,7.00
2017-06-16T04:23:04.637Z,7.83
2017-06-16T04:25:32.143Z,7.60
2017-06-16T04:27:59.671Z,6.90
2017-06-16T04:30:27.175Z,7.43
2017-06-16T04:32:54.683Z,8.23
2017-06-16T04:35:22.211Z,8.10
2017-06-16T04:37:49.712Z,7.40
2017-06-16T04:40:17.216Z,7.20
2017-06-16T04:42:45.504Z,7.20
2017-06-16T04:45:13.006Z,7.90
2017-06-16T04:47:40.512Z,7.43
2017-06-16T04:50:08.803Z,8.30
2017-06-16T04:52:36.307Z,7.57
2017-06-16T04:55:03.811Z,8.03
2017-06-16T04:57:31.335Z,8.37
2017-06-16T04:59:58.839Z,7.93
2017-06-16T05:02:26.347Z,7.97
2017-06-16T05:04:53.881Z,7.50
2017-06-16T05:07:21.384Z,6.70
2017-06-16T05:09:48.891Z,6.63
2017-06-16T05:12:16.419Z,7.07
2017-06-16T05:14:43.924Z,6.70
2017-06-16T05:17:11.428Z,5.90
2017-06-16T05:19:39.715Z,6.47
2017-06-16T05:22:07.224Z,6.50
2017-06-16T05:24:34.752Z,6.30
2017-06-16T05:27:02.258Z,5.90
2017-06-16T05:29:29.767Z,5.40
2017-06-16T05:31:57.307Z,5.03
2017-06-16T05:34:24.811Z,6.33
2017-06-16T05:36:52.315Z,5.50
2017-06-16T05:39:19.847Z,5.13
2017-06-16T05:41:47.351Z,4.83
2017-06-16T05:44:14.861Z,6.10
2017-06-16T05:46:42.407Z,5.37
2017-06-16T05:49:09.911Z,5.50
2017-06-16T05:51:37.415Z,4.57
2017-06-16T05:54:04.964Z,5.40
2017-06-16T05:56:32.472Z,4.73
2017-06-16T05:59:00.740Z,5.07
2017-06-16T06:01:29.039Z,4.70
2017-06-16T06:03:56.547Z,4.50
2017-06-16T06:06:24.051Z,5.00
2017-06-16T06:08:51.600Z,4.73
2017-06-16T06:11:19.868Z,4.80
2017-06-16T06:13:47.374Z,5.10
2017-06-16T06:16:14.915Z,4.40
2017-06-16T06:18:42.462Z,5.00
2017-06-16T06:21:09.967Z,5.00
2017-06-16T06:23:37.499Z,4.47
2017-06-16T06:26:05.003Z,4.33
2017-06-16T06:28:32.508Z,5.40
2017-06-16T06:31:00.051Z,4.83
2017-06-16T06:33:27.559Z,4.20
2017-06-16T06:35:55.066Z,4.13
2017-06-16T06:38:22.587Z,4.10
2017-06-16T06:40:50.087Z,4.63
2017-06-16T06:43:17.592Z,4.20
2017-06-16T06:45:45.116Z,4.57
2017-06-16T06:48:12.620Z,3.50
2017-06-16T06:50:40.128Z,3.63
2017-06-16T06:53:07.655Z,4.13
2017-06-16T06:55:35.927Z,3.80
2017-06-16T06:58:03.432Z,3.80
2017-06-16T07:00:30.976Z,3.93
2017-06-16T07:02:58.479Z,3.73
2017-06-16T07:05:25.983Z,4.13
2017-06-16T07:07:53.518Z,4.00
2017-06-16T07:10:21.023Z,4.37
2017-06-16T07:12:48.528Z,3.93
2017-06-16T07:15:16.095Z,4.30
2017-06-16T07:17:43.599Z,3.90
2017-06-16T07:20:11.099Z,4.10
2017-06-16T07:22:38.635Z,4.10
2017-06-16T07:25:06.139Z,4.70
2017-06-16T07:27:34.411Z,4.33
2017-06-16T07:30:02.711Z,3.73
2017-06-16T07:32:30.211Z,3.97
2017-06-16T07:34:57.720Z,3.87
2017-06-16T07:37:25.247Z,4.63
2017-06-16T07:39:52.752Z,4.10
2017-06-16T07:42:20.256Z,3.90
2017-06-16T07:44:47.783Z,4.80
2017-06-16T07:47:15.287Z,4.70
2017-06-16T07:49:42.787Z,3.73
2017-06-16T07:52:10.315Z,4.10
2017-06-16T07:54:38.575Z,4.20
2017-06-16T07:57:06.077Z,4.67
2017-06-16T07:59:33.607Z,4.87
2017-06-16T08:02:01.875Z,4.63
2017-06-16T08:04:29.384Z,5.27
2017-06-16T08:06:56.915Z,4.60
2017-06-16T08:09:24.418Z,4.53
2017-06-16T08:11:51.924Z,4.60
2017-06-16T08:14:19.451Z,4.63
2017-06-16T08:16:46.951Z,4.90
2017-06-16T08:19:14.456Z,4.80
2017-06-16T08:21:41.991Z,3.90
2017-06-16T08:24:09.495Z,4.10
2017-06-16T08:26:36.997Z,4.37
2017-06-16T08:29:04.527Z,4.27
2017-06-16T08:31:32.043Z,4.10
2017-06-16T08:33:59.547Z,4.50
2017-06-16T08:36:27.075Z,4.20
2017-06-16T08:38:54.575Z,4.07
2017-06-16T08:41:22.079Z,4.70
2017-06-16T08:43:49.615Z,5.20
2017-06-16T08:46:17.116Z,4.50
2017-06-16T08:48:44.619Z,4.80
2017-06-16T08:51:12.148Z,4.83
2017-06-16T08:53:39.660Z,4.60
2017-06-16T08:56:07.163Z,4.77
2017-06-16T08:58:34.691Z,5.00
2017-06-16T09:01:02.204Z,5.40
2017-06-16T09:03:29.709Z,5.27
2017-06-16T09:05:57.243Z,5.03
2017-06-16T09:08:24.740Z,4.57
2017-06-16T09:10:53.015Z,5.13
2017-06-16T09:13:21.312Z,4.50
2017-06-16T09:15:48.811Z,4.53
2017-06-16T09:18:16.311Z,4.53
2017-06-16T09:20:44.595Z,4.50
2017-06-16T09:23:12.867Z,4.20
2017-06-16T09:25:41.139Z,4.03
2017-06-16T09:28:08.666Z,4.27
2017-06-16T09:30:36.167Z,4.33
2017-06-16T09:33:03.667Z,4.30
2017-06-16T09:35:31.192Z,4.30
2017-06-16T09:37:58.699Z,4.30
2017-06-16T09:40:26.207Z,5.13
2017-06-16T09:42:53.743Z,4.87
2017-06-16T09:45:22.015Z,4.50
2017-06-16T09:47:49.517Z,5.07
2017-06-16T09:50:17.051Z,4.10
2017-06-16T09:52:45.311Z,4.30
2017-06-16T09:55:12.816Z,4.17
2017-06-16T09:57:40.341Z,5.00
2017-06-16T10:00:08.615Z,4.73
2017-06-16T10:02:36.884Z,5.27
2017-06-16T10:05:05.178Z,3.83
2017-06-16T10:07:32.687Z,4.10
2017-06-16T10:10:00.195Z,5.10
2017-06-16T10:12:27.711Z,3.47
2017-06-16T10:14:55.219Z,4.17
2017-06-16T10:17:22.744Z,3.60
2017-06-16T10:19:50.248Z,4.30
2017-06-16T10:22:17.759Z,4.27
2017-06-16T10:24:46.052Z,3.70
2017-06-16T10:27:14.319Z,3.60
2017-06-16T10:29:42.607Z,3.43
2017-06-16T10:32:10.875Z,3.80
2017-06-16T10:34:39.151Z,4.70
2017-06-16T10:37:06.676Z,4.20
2017-06-16T10:39:34.174Z,4.07
2017-06-16T10:42:01.709Z,3.73
2017-06-16T10:44:29.231Z,3.70
2017-06-16T10:46:56.728Z,4.00
2017-06-16T10:49:24.231Z,3.87
2017-06-16T10:51:51.772Z,4.27
2017-06-16T10:54:19.271Z,3.93
2017-06-16T10:56:46.771Z,4.60
2017-06-16T10:59:15.067Z,3.93
2017-06-16T11:01:42.581Z,3.50
2017-06-16T11:04:10.084Z,3.50
2017-06-16T11:06:37.603Z,3.40
2017-06-16T11:09:05.099Z,3.47
2017-06-16T11:11:32.626Z,3.20
2017-06-16T11:14:00.132Z,3.10
2017-06-16T11:16:27.639Z,2.80
2017-06-16T11:18:55.162Z,3.00
2017-06-16T11:21:22.671Z,3.13
2017-06-16T11:23:50.975Z,2.87
2017-06-16T11:26:18.476Z,2.83
2017-06-16T11:28:45.979Z,3.20
2017-06-16T11:31:14.264Z,2.83
2017-06-16T11:33:41.779Z,2.40
2017-06-16T11:36:09.299Z,2.60
2017-06-16T11:38:36.804Z,3.30
2017-06-16T11:41:04.298Z,2.83
2017-06-16T11:43:31.819Z,2.70
2017-06-16T11:45:59.328Z,3.10
2017-06-16T11:48:26.835Z,3.17
2017-06-16T11:50:54.359Z,2.40
2017-06-16T11:53:21.862Z,4.03
2017-06-16T11:55:50.158Z,3.30
2017-06-16T11:58:17.659Z,2.90
2017-06-16T12:00:45.167Z,3.27
2017-06-16T12:03:12.682Z,2.70
2017-06-16T12:05:40.183Z,3.03
2017-06-16T12:08:07.711Z,2.80
2017-06-16T12:10:35.218Z,4.03
2017-06-16T12:13:02.723Z,3.27
2017-06-16T12:15:30.247Z,3.40
2017-06-16T12:17:57.756Z,3.20
2017-06-16T12:20:25.259Z,3.00
2017-06-16T12:22:52.795Z,2.13
2017-06-16T12:25:20.308Z,2.73
2017-06-16T12:27:47.811Z,2.63
2017-06-16T12:30:15.335Z,2.50
2017-06-16T12:32:42.834Z,2.70
2017-06-16T12:35:10.340Z,2.80
2017-06-16T12:37:37.871Z,2.43
2017-06-16T12:40:05.378Z,2.83
2017-06-16T12:42:32.875Z,2.20
2017-06-16T12:45:00.395Z,2.60
2017-06-16T12:47:27.899Z,2.60
2017-06-16T12:49:55.423Z,2.87
2017-06-16T12:52:23.708Z,2.77
2017-06-16T12:54:51.971Z,2.50
2017-06-16T12:57:20.263Z,2.87
2017-06-16T12:59:47.770Z,3.50
2017-06-16T13:02:15.295Z,2.87
2017-06-16T13:04:42.808Z,2.67
2017-06-16T13:07:10.303Z,2.80
2017-06-16T13:09:37.819Z,2.17
2017-06-16T13:12:05.318Z,2.53
2017-06-16T13:14:32.840Z,2.60
2017-06-16T13:17:00.360Z,2.70
2017-06-16T13:19:27.858Z,2.43
2017-06-16T13:21:55.376Z,2.80
2017-06-16T13:24:22.879Z,2.27
2017-06-16T13:26:50.421Z,2.40
2017-06-16T13:29:17.920Z,2.67
2017-06-16T13:31:45.430Z,2.40
2017-06-16T13:34:13.150Z,2.67
2017-06-16T13:36:40.653Z,2.70
2017-06-16T13:39:08.151Z,2.20
2017-06-16T13:41:36.443Z,2.60
2017-06-16T13:44:03.947Z,2.10
2017-06-16T13:46:31.450Z,1.93
2017-06-16T13:48:58.982Z,1.83
2017-06-16T13:51:26.489Z,2.50
2017-06-16T13:53:53.990Z,2.23
2017-06-16T13:56:21.515Z,2.00
2017-06-16T13:58:49.019Z,2.13
2017-06-16T14:01:17.295Z,2.00
2017-06-16T14:03:44.819Z,1.93
2017-06-16T14:06:12.326Z,2.37
2017-06-16T14:08:39.840Z,2.10
2017-06-16T14:11:07.363Z,1.70
2017-06-16T14:13:34.867Z,1.63
2017-06-16T14:16:02.398Z,1.80
2017-06-16T14:18:29.916Z,2.00
2017-06-16T14:20:58.183Z,2.20
2017-06-16T14:23:26.474Z,1.80
2017-06-16T14:25:53.978Z,1.60
2017-06-16T14:28:21.483Z,2.07
2017-06-16T14:30:49.799Z,1.70
2017-06-16T14:33:17.303Z,1.97
2017-06-16T14:35:44.819Z,1.67
2017-06-16T14:38:12.347Z,1.50
2017-06-16T14:40:39.850Z,1.33
2017-06-16T14:43:07.350Z,1.50
2017-06-16T14:45:35.646Z,1.40
2017-06-16T14:48:03.150Z,1.63
2017-06-16T14:50:30.656Z,1.20
2017-06-16T14:52:58.170Z,1.30
2017-06-16T14:55:25.670Z,1.53
2017-06-16T14:57:53.175Z,1.43
2017-06-16T15:00:20.694Z,1.40
2017-06-16T15:02:48.198Z,1.40
2017-06-16T15:05:15.723Z,1.40
2017-06-16T15:07:43.227Z,1.13
2017-06-16T15:10:10.731Z,1.13
2017-06-16T15:12:38.247Z,1.53
2017-06-16T15:15:05.752Z,1.20
2017-06-16T15:17:33.288Z,1.17
2017-06-16T15:20:00.794Z,1.50
2017-06-16T15:22:34.064Z,1.10
2017-06-16T15:25:01.571Z,1.10
2017-06-16T15:27:29.075Z,1.10
2017-06-16T15:29:56.594Z,1.20
2017-06-16T15:32:24.096Z,1.17
2017-06-16T15:34:51.623Z,1.50
2017-06-16T15:37:19.894Z,1.70
2017-06-16T15:39:48.209Z,1.10
2017-06-16T15:42:15.726Z,1.50
2017-06-16T15:44:43.994Z,1.43
2017-06-16T15:47:11.516Z,1.40
2017-06-16T15:49:39.014Z,2.07
2017-06-16T15:52:07.285Z,1.50
2017-06-16T15:54:34.806Z,1.70
2017-06-16T15:57:02.304Z,1.80
2017-06-16T15:59:29.827Z,1.90
2017-06-16T16:01:57.332Z,1.50
2017-06-16T16:04:24.832Z,1.63
2017-06-16T16:06:52.355Z,2.10
2017-06-16T16:09:19.859Z,2.20
2017-06-16T16:11:47.366Z,1.70
2017-06-16T16:14:14.899Z,1.57
2017-06-16T16:16:42.404Z,2.00
2017-06-16T16:19:09.911Z,2.03
2017-06-16T16:21:37.451Z,1.80
2017-06-16T16:24:04.955Z,2.20
2017-06-16T16:26:32.460Z,2.00
2017-06-16T16:28:59.988Z,3.47
2017-06-16T16:31:27.484Z,2.10
2017-06-16T16:33:54.983Z,2.07
2017-06-16T16:36:23.275Z,3.03
2017-06-16T16:38:50.784Z,3.87
2017-06-16T16:41:18.291Z,3.43
2017-06-16T16:43:45.818Z,2.90
2017-06-16T16:46:13.320Z,3.00
2017-06-16T16:48:40.823Z,3.70
2017-06-16T16:51:08.347Z,2.63
2017-06-16T16:53:35.852Z,2.93
2017-06-16T16:56:03.363Z,2.97
2017-06-16T16:58:30.907Z,2.50
2017-06-16T17:00:58.419Z,3.20
2017-06-16T17:03:25.922Z,3.10
2017-06-16T17:05:53.450Z,3.40
2017-06-16T17:08:20.952Z,2.63
2017-06-16T17:10:48.484Z,3.37
2017-06-16T17:13:16.751Z,2.97
2017-06-16T17:15:44.259Z,2.90
2017-06-16T17:18:11.804Z,2.63
2017-06-16T17:20:39.308Z,3.37
2017-06-16T17:23:06.808Z,3.23
2017-06-16T17:25:34.327Z,3.27
2017-06-16T17:28:01.831Z,3.23
2017-06-16T17:30:29.359Z,3.67
2017-06-16T17:32:56.863Z,3.53
2017-06-16T17:35:24.367Z,3.60
2017-06-16T17:37:51.890Z,3.73
2017-06-16T17:40:19.390Z,2.53
2017-06-16T17:42:46.915Z,3.60
2017-06-16T17:45:14.423Z,3.57
2017-06-16T17:47:41.947Z,3.10
2017-06-16T17:50:09.451Z,3.30
2017-06-16T17:52:36.958Z,3.10
2017-06-16T17:55:04.475Z,2.57
2017-06-16T17:57:31.979Z,2.70
2017-06-16T17:59:59.500Z,3.10
2017-06-16T18:02:27.002Z,2.70
2017-06-16T18:04:54.508Z,2.90
2017-06-16T18:07:22.027Z,2.27
2017-06-16T18:09:50.292Z,2.63
2017-06-16T18:12:17.819Z,3.20
2017-06-16T18:14:45.323Z,2.67
2017-06-16T18:17:12.827Z,3.73
2017-06-16T18:19:40.342Z,2.53
2017-06-16T18:22:07.847Z,2.10
2017-06-16T18:24:35.375Z,2.60
2017-06-16T18:27:02.879Z,2.30
2017-06-16T18:29:30.381Z,2.50
2017-06-16T18:31:57.907Z,2.50
2017-06-16T18:34:25.411Z,3.30
2017-06-16T18:36:52.915Z,3.20
2017-06-16T18:39:20.434Z,3.03
2017-06-16T18:41:47.950Z,2.67
2017-06-16T18:44:15.478Z,2.63
2017-06-16T18:46:42.986Z,2.80
2017-06-16T18:49:11.251Z,2.63
2017-06-16T18:51:39.554Z,3.10
2017-06-16T18:54:07.055Z,3.13
2017-06-16T18:56:34.587Z,2.73
2017-06-16T18:59:02.086Z,2.80
2017-06-16T19:01:29.586Z,2.80
2017-06-16T19:03:57.115Z,3.43
2017-06-16T19:06:25.391Z,2.43
2017-06-16T19:08:52.924Z,2.63
2017-06-16T19:11:20.431Z,3.17
2017-06-16T19:13:47.939Z,2.93
2017-06-16T19:16:15.459Z,2.73
2017-06-16T19:18:42.967Z,3.00
2017-06-16T19:21:10.472Z,3.10
2017-06-16T19:23:38.003Z,3.47
2017-06-16T19:26:06.266Z,2.60
2017-06-16T19:28:33.766Z,2.70
2017-06-16T19:31:01.287Z,3.37
2017-06-16T19:33:28.787Z,2.70
2017-06-16T19:35:56.315Z,3.40
2017-06-16T19:38:24.579Z,3.00
2017-06-16T19:40:52.083Z,2.50
2017-06-16T19:43:19.600Z,2.83
2017-06-16T19:45:47.867Z,2.40
2017-06-16T19:48:15.399Z,3.77
2017-06-16T19:50:42.908Z,2.70
2017-06-16T19:53:10.410Z,2.87
2017-06-16T19:55:37.922Z,3.37
2017-06-16T19:58:05.422Z,2.80
2017-06-16T20:00:32.952Z,3.63
2017-06-16T20:03:00.455Z,2.90
2017-06-16T20:05:27.954Z,3.10
2017-06-16T20:07:55.483Z,2.87
2017-06-16T20:10:22.982Z,2.80
2017-06-16T20:12:50.483Z,3.00
2017-06-16T20:15:18.012Z,2.93
2017-06-16T20:17:45.516Z,2.80
2017-06-16T20:20:13.021Z,3.07
2017-06-16T20:22:40.539Z,2.70
2017-06-16T20:25:08.043Z,3.60
2017-06-16T20:27:35.548Z,3.03
2017-06-16T20:30:03.076Z,2.73
2017-06-16T20:32:30.575Z,3.57
2017-06-16T20:34:58.075Z,3.30
2017-06-16T20:37:25.599Z,3.43
2017-06-16T20:39:53.872Z,3.17
2017-06-16T20:42:21.372Z,2.90
2017-06-16T20:44:48.895Z,3.50
2017-06-16T20:47:17.171Z,2.83
2017-06-16T20:49:45.439Z,3.20
2017-06-16T20:52:12.967Z,3.00
2017-06-16T20:54:40.471Z,2.73
2017-06-16T20:57:07.975Z,3.60
2017-06-16T20:59:35.504Z,2.63
2017-06-16T21:02:03.011Z,3.30
2017-06-16T21:04:30.511Z,2.73
2017-06-16T21:06:58.031Z,2.90
2017-06-16T21:09:25.535Z,3.70
2017-06-16T21:11:53.059Z,3.07
2017-06-16T21:14:20.566Z,3.57
2017-06-16T21:16:48.071Z,3.00
2017-06-16T21:19:15.596Z,3.53
2017-06-16T21:21:43.092Z,3.40
2017-06-16T21:24:10.595Z,4.13
2017-06-16T21:26:38.110Z,3.77
2017-06-16T21:29:06.379Z,3.33
2017-06-16T21:31:33.884Z,3.87
2017-06-16T21:34:01.399Z,4.03
2017-06-16T21:36:28.906Z,3.60
2017-06-16T21:38:56.406Z,3.43
2017-06-16T21:41:23.932Z,3.63
2017-06-16T21:43:51.426Z,3.57
2017-06-16T21:46:18.929Z,3.20
2017-06-16T21:48:46.447Z,3.13
2017-06-16T21:51:13.938Z,3.90
2017-06-16T21:53:41.467Z,3.77
2017-06-16T21:56:08.971Z,2.93
2017-06-16T21:58:36.480Z,3.37
2017-06-16T22:01:04.003Z,3.30
2017-06-16T22:03:31.503Z,3.50
2017-06-16T22:05:59.002Z,3.40
2017-06-16T22:08:26.526Z,3.23
2017-06-16T22:10:54.031Z,4.40
2017-06-16T22:13:21.551Z,3.20
2017-06-16T22:15:49.077Z,3.20
2017-06-16T22:18:16.578Z,3.50
2017-06-16T22:20:44.078Z,3.80
2017-06-16T22:23:11.605Z,3.67
2017-06-16T22:25:39.107Z,3.37
2017-06-16T22:28:06.611Z,3.10
2017-06-16T22:30:34.141Z,3.13
2017-06-16T22:33:02.411Z,3.07
2017-06-16T22:35:29.918Z,3.30
2017-06-16T22:37:57.442Z,3.37
2017-06-16T22:40:24.935Z,3.20
2017-06-16T22:42:52.435Z,3.57
2017-06-16T22:45:19.967Z,3.67
2017-06-16T22:47:47.470Z,3.83
2017-06-16T22:50:14.976Z,3.70
2017-06-16T22:52:42.503Z,3.33
2017-06-16T22:55:10.007Z,3.30
2017-06-16T22:57:37.512Z,3.37
2017-06-16T23:00:05.039Z,3.47
2017-06-16T23:02:32.543Z,3.40
2017-06-16T23:05:00.043Z,3.90
2017-06-16T23:07:27.567Z,3.03
2017-06-16T23:09:55.067Z,3.20
2017-06-16T23:12:22.568Z,3.83
2017-06-16T23:14:50.095Z,3.60
2017-06-16T23:17:17.595Z,3.33
2017-06-16T23:19:45.099Z,3.67
2017-06-16T23:22:12.623Z,3.50
2017-06-16T23:24:40.128Z,3.63
2017-06-16T23:27:07.627Z,3.30
2017-06-16T23:29:35.151Z,3.20
2017-06-16T23:32:02.654Z,3.80
2017-06-16T23:34:30.150Z,4.00
2017-06-16T23:36:57.682Z,3.43
2017-06-16T23:39:25.187Z,3.60
2017-06-16T23:41:53.451Z,3.90
2017-06-16T23:44:20.974Z,3.60
2017-06-16T23:46:48.474Z,3.20
2017-06-16T23:49:16.743Z,3.50
2017-06-16T23:51:44.275Z,3.23
2017-06-16T23:54:11.790Z,3.80
2017-06-16T23:56:39.300Z,3.67
2017-06-16T23:59:06.825Z,3.27
